Hordafor III — LLVC — position and weather

sailwx.info

Track history (hours):
 
Tides and Currents Weather Stations Pressure Air Temp Water Temp Dewpoint Dewpoint Depression Visibility Wind Speed Wind Dir Waves Ship Positions

Hordafor III

Last reported at 2017-Jan-23 02:23 UTC. Time now 2017-Jan-23 08:36 UTC.
Position N 66°17' E 012°55'.

Length 50 m; draft 6 m.

Type: Cargo ship. MMSI: 258044000.

Date/timePositionNaut miles runAvg speedWind from/ knotsBaromVisibWave heightAir tempDewpointWater temp
2017-Jan-23 02:23N 66°17' E 012°55'911.0
2017-Jan-23 01:33N 66°26' E 012°59'11 9.8
2017-Jan-23 00:23N 66°37' E 013°05'2010.4
2017-Jan-22 22:27N 66°55' E 013°29'9 9.5
2017-Jan-22 21:33N 67°01' E 013°44'1010.4
2017-Jan-22 20:34N 67°09' E 014°02'1110.7
2017-Jan-22 19:33N 67°18' E 014°17'1110.6
2017-Jan-22 18:33N 67°28' E 014°28'90 9.9
2017-Jan-22 09:32N 68°43' E 016°41'93 1.9
2017-Jan-20 09:08N 67°30' E 014°07'5 9.5
2017-Jan-20 08:34N 67°24' E 014°07'9 8.9
2017-Jan-20 07:34N 67°15' E 014°09'9 9.2
2017-Jan-20 06:33N 67°07' E 013°60'3 2.5
2017-Jan-20 05:33N 67°04' E 013°59'0 0.1
2017-Jan-20 04:27N 67°04' E 013°59'1 1.3
2017-Jan-20 03:27N 67°06' E 013°58'3 3.8
2017-Jan-20 02:33N 67°09' E 014°02'1 0.7
2017-Jan-20 01:33N 67°08' E 014°01'4 3.7
2017-Jan-20 00:33N 67°05' E 013°56'3 3.2
2017-Jan-19 23:33N 67°02' E 013°51'7 5.2
2017-Jan-19 22:17N 66°58' E 013°38'20 2.9
2017-Jan-19 15:27N 66°42' E 013°10'7 3.1
2017-Jan-19 13:09N 66°35' E 013°09'7 3.6
2017-Jan-19 11:09N 66°29' E 012°59'4 5.6
2017-Jan-19 10:30N 66°25' E 012°59'13 5.9
2017-Jan-19 08:14N 66°12' E 012°52'7 6.5
2017-Jan-19 07:12N 66°15' E 012°37'5 7.0
2017-Jan-19 06:33N 66°15' E 012°25'6 6.3
2017-Jan-19 05:34N 66°22' E 012°24'1 0.6
2017-Jan-19 04:34N 66°22' E 012°23'0 0.0
2017-Jan-19 03:34N 66°22' E 012°23'0 0.0
2017-Jan-19 02:34N 66°22' E 012°23'0 0.0
2017-Jan-19 01:34N 66°22' E 012°23'0 0.0
2017-Jan-19 00:34N 66°22' E 012°23'0 0.0
2017-Jan-18 23:34N 66°22' E 012°23'0 0.0
2017-Jan-18 22:34N 66°22' E 012°23'0 0.0
2017-Jan-18 21:34N 66°22' E 012°23'0 0.0
2017-Jan-18 20:34N 66°22' E 012°23'0 0.0
2017-Jan-18 19:34N 66°22' E 012°23'0 0.0
2017-Jan-18 18:33N 66°22' E 012°23'0 0.0
2017-Jan-18 17:34N 66°22' E 012°23'0 0.0
2017-Jan-18 16:34N 66°22' E 012°23'0 0.0
2017-Jan-18 15:34N 66°22' E 012°23'0 0.0
2017-Jan-18 14:34N 66°22' E 012°23'0 0.0
2017-Jan-18 13:34N 66°22' E 012°23'0 0.0
2017-Jan-18 12:33N 66°22' E 012°23'0 0.0
2017-Jan-18 11:33N 66°22' E 012°23'1 1.5
2017-Jan-18 10:34N 66°22' E 012°26'9 8.5
2017-Jan-18 09:33N 66°26' E 012°45'16 7.8
2017-Jan-18 07:30N 66°40' E 013°07'19 9.7
2017-Jan-18 05:33N 66°57' E 013°29'1110.1
2017-Jan-18 04:25N 67°03' E 013°52'9 9.9
2017-Jan-18 03:33N 67°11' E 014°04'1010.0
2017-Jan-18 02:33N 67°19' E 014°18'9 9.0
2017-Jan-18 01:33N 67°28' E 014°23'  
2017-Jan-15 15:13N 67°29' E 014°09'710.1
2017-Jan-15 14:34N 67°27' E 014°25'10 9.6
2017-Jan-15 13:33N 67°18' E 014°16'1010.3
2017-Jan-15 12:33N 67°09' E 014°02'1110.6
2017-Jan-15 11:33N 67°01' E 013°46'9 8.9
2017-Jan-15 10:33N 66°55' E 013°29'13 9.9
2017-Jan-15 09:15N 66°44' E 013°12'16 9.3
2017-Jan-15 07:28N 66°28' E 012°59'7 7.8
2017-Jan-15 06:33N 66°21' E 012°57'9 9.0
2017-Jan-15 05:33N 66°16' E 012°38'7 6.6
2017-Jan-15 04:33N 66°19' E 012°23'3 3.3
2017-Jan-15 03:33N 66°22' E 012°23'0 0.0
2017-Jan-15 02:33N 66°22' E 012°23'0 0.0
2017-Jan-15 01:33N 66°22' E 012°23'0 0.0
2017-Jan-15 00:34N 66°22' E 012°23'0 0.0
2017-Jan-14 23:34N 66°22' E 012°23'0 0.0
2017-Jan-14 22:34N 66°22' E 012°23'3 2.6
2017-Jan-14 21:34N 66°23' E 012°28'10 9.6
2017-Jan-14 20:33N 66°27' E 012°50'13 9.0
2017-Jan-14 19:08N 66°38' E 013°06'1910.1
2017-Jan-14 17:13N 66°55' E 013°29'7 9.3
2017-Jan-14 16:30N 67°00' E 013°40'1010.3
2017-Jan-14 15:34N 67°07' E 013°59'1010.2
2017-Jan-14 14:34N 67°16' E 014°12'1110.7
2017-Jan-14 13:33N 67°25' E 014°27'  
Track history (hours):
 
Tides and Currents Weather Stations Pressure Air Temp Water Temp Dewpoint Dewpoint Depression Visibility Wind Speed Wind Dir Waves Ship Positions

Hordafor III

Last reported at 2017-Jan-23 02:23 UTC. Time now 2017-Jan-23 08:36 UTC.
Position N 66°17' E 012°55'.

Length 50 m; draft 6 m.

Type: Cargo ship. MMSI: 258044000.

Date/timePositionNaut miles runAvg speedWind from/ knotsBaromVisibWave heightAir tempDewpointWater temp
2017-Jan-23 02:23N 66°17' E 012°55'911.0
2017-Jan-23 01:33N 66°26' E 012°59'11 9.8
2017-Jan-23 00:23N 66°37' E 013°05'2010.4
2017-Jan-22 22:27N 66°55' E 013°29'9 9.5
2017-Jan-22 21:33N 67°01' E 013°44'1010.4
2017-Jan-22 20:34N 67°09' E 014°02'1110.7
2017-Jan-22 19:33N 67°18' E 014°17'1110.6
2017-Jan-22 18:33N 67°28' E 014°28'90 9.9
2017-Jan-22 09:32N 68°43' E 016°41'93 1.9
2017-Jan-20 09:08N 67°30' E 014°07'5 9.5
2017-Jan-20 08:34N 67°24' E 014°07'9 8.9
2017-Jan-20 07:34N 67°15' E 014°09'9 9.2
2017-Jan-20 06:33N 67°07' E 013°60'3 2.5
2017-Jan-20 05:33N 67°04' E 013°59'0 0.1
2017-Jan-20 04:27N 67°04' E 013°59'1 1.3
2017-Jan-20 03:27N 67°06' E 013°58'3 3.8
2017-Jan-20 02:33N 67°09' E 014°02'1 0.7
2017-Jan-20 01:33N 67°08' E 014°01'4 3.7
2017-Jan-20 00:33N 67°05' E 013°56'3 3.2
2017-Jan-19 23:33N 67°02' E 013°51'7 5.2
2017-Jan-19 22:17N 66°58' E 013°38'20 2.9
2017-Jan-19 15:27N 66°42' E 013°10'7 3.1
2017-Jan-19 13:09N 66°35' E 013°09'7 3.6
2017-Jan-19 11:09N 66°29' E 012°59'4 5.6
2017-Jan-19 10:30N 66°25' E 012°59'13 5.9
2017-Jan-19 08:14N 66°12' E 012°52'7 6.5
2017-Jan-19 07:12N 66°15' E 012°37'5 7.0
2017-Jan-19 06:33N 66°15' E 012°25'6 6.3
2017-Jan-19 05:34N 66°22' E 012°24'1 0.6
2017-Jan-19 04:34N 66°22' E 012°23'0 0.0
2017-Jan-19 03:34N 66°22' E 012°23'0 0.0
2017-Jan-19 02:34N 66°22' E 012°23'0 0.0
2017-Jan-19 01:34N 66°22' E 012°23'0 0.0
2017-Jan-19 00:34N 66°22' E 012°23'0 0.0
2017-Jan-18 23:34N 66°22' E 012°23'0 0.0
2017-Jan-18 22:34N 66°22' E 012°23'0 0.0
2017-Jan-18 21:34N 66°22' E 012°23'0 0.0
2017-Jan-18 20:34N 66°22' E 012°23'0 0.0
2017-Jan-18 19:34N 66°22' E 012°23'0 0.0
2017-Jan-18 18:33N 66°22' E 012°23'0 0.0
2017-Jan-18 17:34N 66°22' E 012°23'0 0.0
2017-Jan-18 16:34N 66°22' E 012°23'0 0.0
2017-Jan-18 15:34N 66°22' E 012°23'0 0.0
2017-Jan-18 14:34N 66°22' E 012°23'0 0.0
2017-Jan-18 13:34N 66°22' E 012°23'0 0.0
2017-Jan-18 12:33N 66°22' E 012°23'0 0.0
2017-Jan-18 11:33N 66°22' E 012°23'1 1.5
2017-Jan-18 10:34N 66°22' E 012°26'9 8.5
2017-Jan-18 09:33N 66°26' E 012°45'16 7.8
2017-Jan-18 07:30N 66°40' E 013°07'19 9.7
2017-Jan-18 05:33N 66°57' E 013°29'1110.1
2017-Jan-18 04:25N 67°03' E 013°52'9 9.9
2017-Jan-18 03:33N 67°11' E 014°04'1010.0
2017-Jan-18 02:33N 67°19' E 014°18'9 9.0
2017-Jan-18 01:33N 67°28' E 014°23'  
2017-Jan-15 15:13N 67°29' E 014°09'710.1
2017-Jan-15 14:34N 67°27' E 014°25'10 9.6
2017-Jan-15 13:33N 67°18' E 014°16'1010.3
2017-Jan-15 12:33N 67°09' E 014°02'1110.6
2017-Jan-15 11:33N 67°01' E 013°46'9 8.9
2017-Jan-15 10:33N 66°55' E 013°29'13 9.9
2017-Jan-15 09:15N 66°44' E 013°12'16 9.3
2017-Jan-15 07:28N 66°28' E 012°59'7 7.8
2017-Jan-15 06:33N 66°21' E 012°57'9 9.0
2017-Jan-15 05:33N 66°16' E 012°38'7 6.6
2017-Jan-15 04:33N 66°19' E 012°23'3 3.3
2017-Jan-15 03:33N 66°22' E 012°23'0 0.0
2017-Jan-15 02:33N 66°22' E 012°23'0 0.0
2017-Jan-15 01:33N 66°22' E 012°23'0 0.0
2017-Jan-15 00:34N 66°22' E 012°23'0 0.0
2017-Jan-14 23:34N 66°22' E 012°23'0 0.0
2017-Jan-14 22:34N 66°22' E 012°23'3 2.6
2017-Jan-14 21:34N 66°23' E 012°28'10 9.6
2017-Jan-14 20:33N 66°27' E 012°50'13 9.0
2017-Jan-14 19:08N 66°38' E 013°06'1910.1
2017-Jan-14 17:13N 66°55' E 013°29'7 9.3
2017-Jan-14 16:30N 67°00' E 013°40'1010.3
2017-Jan-14 15:34N 67°07' E 013°59'1010.2
2017-Jan-14 14:34N 67°16' E 014°12'1110.7
2017-Jan-14 13:33N 67°25' E 014°27'  

Dump ship's entire track history